createdAt,value
2019-02-21T00:01:22.866Z,3.93
2019-02-21T00:03:51.546Z,3.97
2019-02-21T00:06:20.362Z,3.97
2019-02-21T00:08:49.324Z,3.50
2019-02-21T00:11:21.474Z,4.70
2019-02-21T00:13:50.275Z,3.30
2019-02-21T00:16:19.608Z,4.53
2019-02-21T00:18:51.129Z,3.83
2019-02-21T00:21:20.280Z,4.33
2019-02-21T00:23:48.996Z,4.13
2019-02-21T00:26:17.875Z,4.37
2019-02-21T00:28:46.686Z,4.37
2019-02-21T00:31:15.540Z,5.00
2019-02-21T00:33:44.549Z,5.17
2019-02-21T00:36:13.300Z,4.73
2019-02-21T00:38:42.324Z,5.50
2019-02-21T00:41:11.208Z,4.23
2019-02-21T00:43:40.095Z,5.03
2019-02-21T00:46:09.220Z,6.60
2019-02-21T00:48:38.116Z,5.37
2019-02-21T00:51:06.992Z,8.27
2019-02-21T00:53:36.506Z,8.53
2019-02-21T00:56:05.501Z,11.50
2019-02-21T00:58:34.350Z,12.30
2019-02-21T01:01:03.133Z,12.80
2019-02-21T01:03:32.164Z,14.13
2019-02-21T01:06:01.226Z,14.10
2019-02-21T01:08:31.958Z,14.30
2019-02-21T01:11:00.698Z,15.27
2019-02-21T01:13:30.980Z,14.73
2019-02-21T01:15:59.770Z,14.80
2019-02-21T01:18:28.556Z,14.03
2019-02-21T01:20:57.298Z,16.70
2019-02-21T01:23:26.310Z,15.17
2019-02-21T01:25:56.458Z,15.20
2019-02-21T01:28:25.408Z,15.43
2019-02-21T01:30:57.011Z,16.73
2019-02-21T01:33:26.243Z,16.60
2019-02-21T01:35:54.784Z,17.67
2019-02-21T01:38:23.623Z,17.87
2019-02-21T01:40:52.539Z,17.53
2019-02-21T01:43:21.344Z,18.47
2019-02-21T01:45:50.068Z,17.77
2019-02-21T01:48:18.872Z,18.77
2019-02-21T01:50:47.815Z,20.57
2019-02-21T01:53:16.462Z,20.13
2019-02-21T01:55:45.187Z,20.37
2019-02-21T01:58:13.876Z,19.47
2019-02-21T02:00:42.816Z,20.67
2019-02-21T02:03:11.468Z,20.27
2019-02-21T02:05:40.273Z,21.13
2019-02-21T02:08:09.048Z,19.60
2019-02-21T02:10:38.031Z,21.17
2019-02-21T02:13:07.228Z,21.70
2019-02-21T02:15:35.946Z,21.23
2019-02-21T02:18:04.722Z,20.73
2019-02-21T02:20:33.628Z,21.47
2019-02-21T02:23:02.382Z,19.93
2019-02-21T02:25:31.079Z,20.57
2019-02-21T02:28:01.080Z,19.73
2019-02-21T02:30:29.907Z,19.90
2019-02-21T02:33:35.812Z,22.47
2019-02-21T02:36:24.550Z,20.50
2019-02-21T02:38:53.228Z,19.83
2019-02-21T02:41:21.973Z,20.23
2019-02-21T02:43:53.356Z,20.37
2019-02-21T02:46:40.586Z,20.57
2019-02-21T02:49:09.366Z,19.90
2019-02-21T02:51:38.193Z,19.77
2019-02-21T02:54:06.870Z,21.57
2019-02-21T02:56:35.578Z,21.73
2019-02-21T02:59:04.428Z,23.93
2019-02-21T03:01:35.013Z,22.17
2019-02-21T03:04:03.667Z,23.90
2019-02-21T03:06:32.360Z,23.50
2019-02-21T03:09:01.104Z,26.20
2019-02-21T03:11:29.970Z,28.87
2019-02-21T03:13:58.708Z,27.93
2019-02-21T03:16:27.668Z,28.47
2019-02-21T03:18:56.362Z,26.77
2019-02-21T03:21:25.046Z,25.30
2019-02-21T03:23:53.842Z,24.30
2019-02-21T03:26:22.643Z,23.80
2019-02-21T03:28:51.267Z,25.50
2019-02-21T03:31:20.166Z,22.97
2019-02-21T03:33:48.928Z,21.73
2019-02-21T03:36:17.741Z,22.23
2019-02-21T03:38:46.902Z,22.50
2019-02-21T03:41:18.745Z,20.83
2019-02-21T03:43:47.343Z,22.40
2019-02-21T03:46:18.981Z,20.60
2019-02-21T03:48:47.679Z,21.60
2019-02-21T03:51:18.574Z,21.23
2019-02-21T03:53:48.954Z,22.27
2019-02-21T03:56:17.828Z,22.93
2019-02-21T03:58:46.638Z,20.83
2019-02-21T04:01:15.361Z,22.13
2019-02-21T04:03:44.135Z,21.87
2019-02-21T04:06:12.973Z,20.47
2019-02-21T04:08:41.778Z,20.50
2019-02-21T04:11:10.497Z,21.00
2019-02-21T04:13:48.331Z,21.43
2019-02-21T04:16:17.809Z,20.37
2019-02-21T04:18:46.560Z,19.50
2019-02-21T04:21:15.359Z,19.80
2019-02-21T04:23:47.304Z,20.17
2019-02-21T04:26:16.106Z,20.93
2019-02-21T04:28:45.777Z,21.27
2019-02-21T04:31:14.842Z,20.60
2019-02-21T04:33:44.995Z,18.70
2019-02-21T04:36:16.819Z,22.17
2019-02-21T04:38:45.535Z,20.30
2019-02-21T04:41:14.493Z,20.03
2019-02-21T04:43:44.989Z,20.93
2019-02-21T04:46:13.741Z,21.50
2019-02-21T04:48:42.385Z,20.70
2019-02-21T04:51:11.232Z,21.43
2019-02-21T04:53:40.169Z,20.80
2019-02-21T04:56:08.949Z,21.90
2019-02-21T04:58:37.597Z,23.53
2019-02-21T05:01:06.290Z,23.33
2019-02-21T05:03:34.957Z,22.53
2019-02-21T05:06:04.103Z,22.07
2019-02-21T05:08:32.924Z,22.87
2019-02-21T05:11:01.675Z,25.63
2019-02-21T05:13:30.569Z,23.13
2019-02-21T05:15:59.352Z,25.23
2019-02-21T05:18:28.271Z,25.80
2019-02-21T05:20:57.220Z,26.10
2019-02-21T05:23:25.820Z,30.40
2019-02-21T05:25:54.579Z,26.87
2019-02-21T05:28:35.009Z,28.33
2019-02-21T05:31:08.295Z,28.97
2019-02-21T05:33:38.971Z,29.37
2019-02-21T05:36:15.412Z,29.60
2019-02-21T05:38:45.901Z,29.87
2019-02-21T05:41:19.187Z,30.47
2019-02-21T05:43:49.540Z,30.87
2019-02-21T05:46:31.923Z,28.40
2019-02-21T05:49:04.871Z,33.30
2019-02-21T05:51:36.965Z,30.73
2019-02-21T05:54:07.321Z,33.43
2019-02-21T05:56:43.534Z,33.87
2019-02-21T05:59:13.972Z,33.07
2019-02-21T06:02:00.816Z,33.10
2019-02-21T06:04:37.565Z,34.07
2019-02-21T06:07:17.790Z,32.33
2019-02-21T06:09:51.250Z,32.57
2019-02-21T06:12:32.880Z,32.77
2019-02-21T06:15:02.500Z,32.17
2019-02-21T06:17:45.021Z,32.30
2019-02-21T06:20:24.289Z,33.33
2019-02-21T06:22:55.081Z,34.93
2019-02-21T06:25:29.577Z,33.50
2019-02-21T06:27:58.648Z,34.30
2019-02-21T06:30:38.404Z,34.80
2019-02-21T06:33:07.191Z,35.30
2019-02-21T06:35:36.103Z,35.40
2019-02-21T06:38:04.901Z,35.23
2019-02-21T06:40:36.373Z,34.17
2019-02-21T06:43:05.402Z,35.63
2019-02-21T06:45:35.145Z,36.70
2019-02-21T06:48:04.086Z,37.30
2019-02-21T06:51:13.870Z,37.17
2019-02-21T06:53:43.647Z,36.63
2019-02-21T06:56:12.596Z,38.03
2019-02-21T06:58:42.157Z,39.10
2019-02-21T07:01:11.058Z,38.63
2019-02-21T07:03:39.748Z,39.70
2019-02-21T07:06:08.483Z,40.17
2019-02-21T07:08:37.280Z,40.63
2019-02-21T07:11:06.672Z,39.40
2019-02-21T07:13:35.613Z,40.67
2019-02-21T07:16:05.734Z,40.97
2019-02-21T07:18:35.320Z,40.90
2019-02-21T07:21:04.145Z,40.07
2019-02-21T07:23:43.164Z,40.73
2019-02-21T07:26:04.304Z,41.87
2019-02-21T07:28:33.115Z,41.53
2019-02-21T07:31:02.061Z,41.50
2019-02-21T07:33:30.771Z,41.97
2019-02-21T07:35:59.722Z,43.03
2019-02-21T07:38:28.628Z,42.73
2019-02-21T07:40:57.477Z,43.40
2019-02-21T07:43:27.284Z,43.00
2019-02-21T07:45:58.833Z,42.00
2019-02-21T07:48:27.739Z,42.60
2019-02-21T07:50:59.293Z,41.30
2019-02-21T07:53:28.098Z,43.00
2019-02-21T07:55:56.830Z,41.03
2019-02-21T07:58:26.887Z,39.10
2019-02-21T08:00:55.600Z,41.00
2019-02-21T08:03:30.375Z,39.10
2019-02-21T08:05:54.792Z,42.63
2019-02-21T08:08:24.032Z,40.03
2019-02-21T08:10:52.736Z,41.30
2019-02-21T08:13:21.416Z,42.10
2019-02-21T08:15:50.160Z,37.83
2019-02-21T08:18:18.839Z,39.20
2019-02-21T08:21:05.832Z,37.07
2019-02-21T08:23:34.448Z,36.63
2019-02-21T08:26:03.436Z,36.03
2019-02-21T08:28:32.313Z,35.30
2019-02-21T08:31:01.174Z,37.27
2019-02-21T08:33:31.507Z,37.87
2019-02-21T08:36:00.412Z,35.80
2019-02-21T08:38:29.134Z,36.10
2019-02-21T08:40:59.225Z,36.57
2019-02-21T08:43:48.072Z,35.17
2019-02-21T08:46:18.286Z,35.40
2019-02-21T08:48:47.924Z,32.80
2019-02-21T08:51:18.411Z,33.53
2019-02-21T08:53:47.332Z,34.63
2019-02-21T08:56:16.026Z,34.83
2019-02-21T08:58:45.624Z,34.67
2019-02-21T09:01:14.724Z,34.27
2019-02-21T09:03:43.479Z,35.03
2019-02-21T09:06:12.268Z,35.77
2019-02-21T09:08:45.992Z,33.50
2019-02-21T09:11:15.734Z,31.97
2019-02-21T09:13:46.424Z,34.40
2019-02-21T09:16:17.757Z,34.93
2019-02-21T09:18:46.866Z,33.47
2019-02-21T09:21:15.582Z,36.17
2019-02-21T09:23:44.479Z,36.50
2019-02-21T09:26:13.124Z,34.67
2019-02-21T09:28:41.771Z,36.97
2019-02-21T09:31:10.514Z,36.13
2019-02-21T09:33:39.418Z,35.57
2019-02-21T09:36:08.088Z,35.33
2019-02-21T09:38:36.761Z,36.83
2019-02-21T09:41:05.521Z,38.80
2019-02-21T09:43:34.355Z,37.77
2019-02-21T09:46:03.515Z,42.47
2019-02-21T09:48:32.196Z,39.37
2019-02-21T09:51:01.972Z,42.43
2019-02-21T09:53:30.874Z,39.17
2019-02-21T09:55:59.658Z,42.07
2019-02-21T09:58:28.321Z,41.93
2019-02-21T10:00:57.121Z,42.10
2019-02-21T10:03:25.973Z,45.07
2019-02-21T10:05:54.829Z,42.97
2019-02-21T10:08:23.533Z,44.37
2019-02-21T10:10:52.151Z,46.17
2019-02-21T10:13:20.930Z,44.27
2019-02-21T10:15:49.818Z,45.90
2019-02-21T10:18:20.723Z,44.97
2019-02-21T10:20:49.262Z,45.57
2019-02-21T10:23:24.355Z,45.17
2019-02-21T10:25:53.138Z,47.13
2019-02-21T10:28:22.167Z,44.83
2019-02-21T10:30:53.507Z,44.73
2019-02-21T10:33:22.218Z,45.77
2019-02-21T10:35:50.934Z,43.50
2019-02-21T10:38:19.702Z,44.93
2019-02-21T10:40:48.588Z,43.47
2019-02-21T10:43:20.673Z,44.07
2019-02-21T10:46:02.120Z,45.37
2019-02-21T10:48:32.234Z,42.40
2019-02-21T10:51:04.013Z,46.20
2019-02-21T10:53:36.569Z,45.60
2019-02-21T10:56:07.702Z,47.13
2019-02-21T10:58:54.210Z,46.60
2019-02-21T11:02:16.171Z,46.40
2019-02-21T11:04:55.322Z,44.43
2019-02-21T11:07:25.559Z,46.33
2019-02-21T11:10:08.113Z,42.50
2019-02-21T11:12:41.064Z,42.87
2019-02-21T11:15:15.273Z,44.57
2019-02-21T11:17:44.200Z,44.47
2019-02-21T11:20:23.427Z,42.07
2019-02-21T11:22:53.615Z,44.37
2019-02-21T11:25:23.610Z,41.77
2019-02-21T11:27:53.649Z,43.00
2019-02-21T11:30:27.119Z,43.00
2019-02-21T11:32:56.280Z,41.73
2019-02-21T11:35:32.041Z,41.47
2019-02-21T11:38:15.615Z,39.57
2019-02-21T11:40:49.419Z,39.70
2019-02-21T11:43:19.841Z,39.50
2019-02-21T11:45:55.224Z,42.27
2019-02-21T11:48:22.153Z,41.47
2019-02-21T11:50:50.921Z,42.20
2019-02-21T11:53:20.813Z,42.50
2019-02-21T11:55:49.495Z,42.33
2019-02-21T11:58:18.167Z,42.80
2019-02-21T12:00:47.128Z,42.13
2019-02-21T12:03:15.960Z,37.77
2019-02-21T12:05:44.682Z,39.27
2019-02-21T12:08:13.489Z,34.43
2019-02-21T12:10:42.149Z,33.77
2019-02-21T12:13:11.087Z,33.47
2019-02-21T12:15:39.671Z,31.47
2019-02-21T12:18:08.457Z,32.37
2019-02-21T12:20:37.306Z,31.27
2019-02-21T12:23:11.638Z,32.70
2019-02-21T12:25:45.949Z,28.80
2019-02-21T12:28:14.569Z,31.03
2019-02-21T12:30:45.315Z,31.20
2019-02-21T12:33:14.164Z,30.77
2019-02-21T12:35:43.635Z,32.00
2019-02-21T12:38:12.372Z,31.93
2019-02-21T12:40:41.150Z,31.63
2019-02-21T12:43:18.726Z,32.13
2019-02-21T12:45:47.591Z,32.20
2019-02-21T12:48:43.163Z,32.53
2019-02-21T12:51:09.247Z,29.83
2019-02-21T12:53:38.197Z,30.90
2019-02-21T12:56:06.912Z,32.63
2019-02-21T12:58:36.019Z,29.67
2019-02-21T13:01:05.021Z,28.93
2019-02-21T13:03:33.821Z,29.83
2019-02-21T13:06:03.977Z,28.67
2019-02-21T13:08:32.920Z,26.57
2019-02-21T13:11:07.816Z,29.20
2019-02-21T13:13:36.663Z,27.40
2019-02-21T13:16:05.453Z,28.97
2019-02-21T13:18:40.183Z,27.73
2019-02-21T13:21:08.257Z,29.17
2019-02-21T13:23:43.397Z,28.23
2019-02-21T13:26:18.418Z,28.23
2019-02-21T13:28:58.503Z,28.00
2019-02-21T13:31:27.210Z,29.43
2019-02-21T13:33:56.275Z,26.03
2019-02-21T13:36:24.894Z,25.93
2019-02-21T13:38:53.705Z,27.13
2019-02-21T13:41:22.519Z,25.90
2019-02-21T13:43:51.324Z,25.73
2019-02-21T13:46:20.164Z,21.87
2019-02-21T13:48:48.983Z,23.73
2019-02-21T13:51:18.078Z,21.40
2019-02-21T13:53:47.052Z,21.63
2019-02-21T13:56:16.119Z,20.27
2019-02-21T13:58:44.908Z,19.87
2019-02-21T14:01:14.591Z,17.53
2019-02-21T14:03:43.892Z,16.47
2019-02-21T14:06:12.772Z,14.80
2019-02-21T14:08:41.634Z,15.93
2019-02-21T14:11:10.350Z,17.63
2019-02-21T14:13:39.236Z,17.43
2019-02-21T14:16:08.110Z,17.80
2019-02-21T14:18:37.159Z,18.20
2019-02-21T14:21:06.151Z,20.37
2019-02-21T14:23:34.986Z,20.43
2019-02-21T14:26:04.208Z,22.47
2019-02-21T14:28:32.846Z,22.33
2019-02-21T14:31:01.774Z,22.30
2019-02-21T14:33:30.496Z,21.13
2019-02-21T14:36:00.867Z,18.53
2019-02-21T14:38:32.986Z,17.03
2019-02-21T14:41:01.744Z,14.60
2019-02-21T14:43:30.543Z,14.03
2019-02-21T14:45:59.514Z,13.53
2019-02-21T14:48:28.249Z,11.90
2019-02-21T14:50:57.541Z,11.30
2019-02-21T14:53:26.323Z,12.33
2019-02-21T14:55:55.186Z,12.93
2019-02-21T14:58:24.028Z,12.83
2019-02-21T15:00:53.026Z,15.37
2019-02-21T15:03:22.465Z,15.27
2019-02-21T15:05:51.203Z,17.73
2019-02-21T15:08:22.048Z,17.60
2019-02-21T15:10:52.745Z,18.37
2019-02-21T15:13:22.240Z,19.13
2019-02-21T15:15:51.052Z,18.77
2019-02-21T15:18:19.779Z,19.30
2019-02-21T15:20:48.662Z,21.40
2019-02-21T15:23:17.646Z,21.53
2019-02-21T15:25:49.338Z,21.47
2019-02-21T15:28:18.262Z,24.03
2019-02-21T15:30:47.374Z,22.43
2019-02-21T15:33:16.492Z,23.20
2019-02-21T15:35:45.256Z,23.07
2019-02-21T15:38:19.929Z,23.20
2019-02-21T15:40:44.244Z,24.60
2019-02-21T15:43:13.016Z,23.10
2019-02-21T15:45:42.156Z,24.30
2019-02-21T15:48:11.090Z,25.07
2019-02-21T15:50:39.948Z,23.57
2019-02-21T15:53:09.304Z,25.53
2019-02-21T15:55:38.002Z,24.20
2019-02-21T15:58:06.720Z,25.77
2019-02-21T16:00:35.601Z,27.07
2019-02-21T16:03:04.334Z,26.10
2019-02-21T16:05:33.313Z,25.47
2019-02-21T16:08:03.698Z,24.93
2019-02-21T16:10:32.489Z,24.90
2019-02-21T16:13:04.278Z,24.47
2019-02-21T16:15:31.896Z,25.40
2019-02-21T16:18:00.649Z,25.60
2019-02-21T16:20:29.412Z,24.60
2019-02-21T16:22:58.176Z,24.77
2019-02-21T16:25:28.987Z,25.53
2019-02-21T16:27:57.766Z,26.97
2019-02-21T16:30:26.647Z,27.47
2019-02-21T16:32:55.562Z,26.90
2019-02-21T16:35:24.301Z,28.90
2019-02-21T16:37:53.012Z,30.80
2019-02-21T16:40:21.694Z,29.60
2019-02-21T16:42:50.674Z,29.67
2019-02-21T16:45:23.435Z,32.73
2019-02-21T16:47:52.402Z,31.83
2019-02-21T16:50:29.210Z,31.20
2019-02-21T16:52:54.816Z,34.90
2019-02-21T16:55:24.573Z,35.63
2019-02-21T16:57:53.524Z,34.83
2019-02-21T17:00:25.556Z,35.67
2019-02-21T17:02:54.337Z,36.23
2019-02-21T17:05:23.439Z,37.37
2019-02-21T17:07:52.333Z,36.73
2019-02-21T17:10:21.183Z,35.77
2019-02-21T17:12:50.090Z,35.87
2019-02-21T17:15:19.192Z,35.17
2019-02-21T17:17:48.021Z,32.70
2019-02-21T17:20:21.973Z,28.87
2019-02-21T17:22:50.830Z,28.10
2019-02-21T17:25:19.970Z,23.30
2019-02-21T17:27:50.822Z,21.73
2019-02-21T17:30:20.201Z,20.93
2019-02-21T17:32:49.165Z,21.43
2019-02-21T17:35:18.387Z,21.10
2019-02-21T17:37:47.237Z,20.33
2019-02-21T17:40:24.834Z,20.10
2019-02-21T17:42:53.752Z,20.30
2019-02-21T17:45:23.174Z,21.27
2019-02-21T17:47:52.201Z,20.33
2019-02-21T17:50:21.235Z,21.77
2019-02-21T17:52:50.047Z,22.90
2019-02-21T17:55:19.270Z,21.77
2019-02-21T17:57:48.224Z,23.00
2019-02-21T18:00:28.614Z,23.77
2019-02-21T18:02:57.383Z,24.27
2019-02-21T18:05:26.376Z,23.90
2019-02-21T18:07:55.554Z,23.67
2019-02-21T18:10:24.300Z,23.07
2019-02-21T18:12:53.129Z,23.87
2019-02-21T18:15:21.915Z,24.67
2019-02-21T18:17:50.626Z,23.10
2019-02-21T18:20:19.526Z,24.53
2019-02-21T18:22:48.494Z,23.30
2019-02-21T18:25:26.238Z,26.13
2019-02-21T18:27:55.253Z,26.03
2019-02-21T18:30:24.180Z,24.47
2019-02-21T18:32:53.035Z,26.23
2019-02-21T18:35:23.841Z,26.33
2019-02-21T18:37:52.620Z,26.87
2019-02-21T18:40:26.157Z,27.53
2019-02-21T18:42:55.133Z,28.67
2019-02-21T18:45:23.960Z,27.77
2019-02-21T18:47:52.797Z,29.47
2019-02-21T18:50:21.687Z,29.77
2019-02-21T18:52:50.914Z,31.57
2019-02-21T18:55:20.051Z,31.00
2019-02-21T18:57:48.900Z,32.43
2019-02-21T19:00:24.365Z,32.93
2019-02-21T19:02:53.418Z,32.27
2019-02-21T19:05:22.605Z,32.80
2019-02-21T19:08:02.119Z,32.93
2019-02-21T19:10:22.959Z,32.73
2019-02-21T19:12:51.817Z,33.93
2019-02-21T19:15:21.887Z,33.70
2019-02-21T19:17:50.857Z,31.60
2019-02-21T19:20:20.883Z,32.47
2019-02-21T19:22:50.354Z,31.03
2019-02-21T19:25:19.117Z,29.87
2019-02-21T19:27:48.359Z,30.27
2019-02-21T19:30:31.859Z,30.20
2019-02-21T19:33:00.899Z,30.13
2019-02-21T19:35:30.123Z,29.40
2019-02-21T19:38:09.508Z,29.87
2019-02-21T19:40:29.725Z,29.50
2019-02-21T19:42:58.626Z,28.83
2019-02-21T19:45:27.924Z,29.57
2019-02-21T19:47:56.651Z,29.67
2019-02-21T19:50:28.977Z,28.47
2019-02-21T19:52:58.246Z,28.57
2019-02-21T19:55:27.226Z,28.33
2019-02-21T19:57:57.303Z,24.47
2019-02-21T20:00:31.669Z,23.70
2019-02-21T20:03:00.707Z,23.43
2019-02-21T20:05:29.532Z,25.37
2019-02-21T20:08:08.267Z,29.77
2019-02-21T20:10:29.096Z,25.57
2019-02-21T20:12:59.481Z,27.43
2019-02-21T20:15:28.860Z,27.87
2019-02-21T20:17:59.064Z,29.60
2019-02-21T20:20:28.215Z,28.87
2019-02-21T20:23:34.339Z,27.83
2019-02-21T20:26:03.123Z,29.67
2019-02-21T20:28:32.602Z,32.13
2019-02-21T20:31:06.091Z,30.93
2019-02-21T20:33:35.010Z,33.50
2019-02-21T20:36:04.019Z,28.80
2019-02-21T20:38:32.952Z,26.23
2019-02-21T20:41:01.977Z,25.20
2019-02-21T20:43:30.883Z,26.20
2019-02-21T20:46:02.777Z,24.67
2019-02-21T20:48:32.607Z,24.17
2019-02-21T20:51:01.855Z,23.43
2019-02-21T20:53:33.924Z,23.07
2019-02-21T20:56:02.776Z,22.73
2019-02-21T20:58:31.532Z,24.27
2019-02-21T21:01:01.459Z,23.83
2019-02-21T21:03:30.354Z,21.27
2019-02-21T21:05:59.134Z,17.00
2019-02-21T21:08:27.932Z,16.07
2019-02-21T21:10:56.692Z,14.23
2019-02-21T21:13:25.474Z,16.37
2019-02-21T21:15:54.455Z,13.57
2019-02-21T21:18:23.254Z,13.33
2019-02-21T21:20:54.080Z,12.63
2019-02-21T21:23:23.024Z,13.80
2019-02-21T21:25:51.789Z,13.83
2019-02-21T21:28:20.580Z,12.83
2019-02-21T21:30:52.584Z,11.10
2019-02-21T21:33:21.506Z,12.97
2019-02-21T21:35:50.290Z,11.30
2019-02-21T21:38:24.051Z,9.97
2019-02-21T21:40:49.859Z,10.67
2019-02-21T21:43:18.583Z,9.17
2019-02-21T21:45:47.584Z,8.30
2019-02-21T21:48:16.394Z,8.57
2019-02-21T21:50:45.732Z,9.67
2019-02-21T21:53:14.590Z,5.17
2019-02-21T21:55:43.749Z,6.90
2019-02-21T21:58:13.029Z,8.40
2019-02-21T22:00:42.113Z,10.43
2019-02-21T22:03:10.918Z,9.07
2019-02-21T22:05:39.923Z,8.40
2019-02-21T22:08:09.099Z,7.70
2019-02-21T22:10:37.938Z,7.13
2019-02-21T22:13:06.832Z,8.27
2019-02-21T22:15:35.807Z,7.30
2019-02-21T22:18:05.286Z,7.63
2019-02-21T22:20:34.109Z,6.40
2019-02-21T22:23:02.948Z,8.67
2019-02-21T22:25:31.895Z,8.00
2019-02-21T22:28:00.963Z,8.27
2019-02-21T22:30:30.266Z,7.70
2019-02-21T22:32:59.445Z,8.30
2019-02-21T22:35:28.323Z,7.33
2019-02-21T22:37:57.394Z,6.93
2019-02-21T22:40:27.055Z,8.13
2019-02-21T22:42:56.303Z,7.57
2019-02-21T22:45:25.311Z,8.43
2019-02-21T22:47:55.836Z,7.37
2019-02-21T22:50:26.834Z,4.57
2019-02-21T22:52:55.819Z,7.70
2019-02-21T22:55:24.810Z,7.50
2019-02-21T22:57:53.820Z,7.57
2019-02-21T23:00:42.352Z,8.70
2019-02-21T23:03:12.120Z,7.47
2019-02-21T23:05:59.283Z,8.03
2019-02-21T23:08:43.696Z,8.87
2019-02-21T23:11:12.791Z,8.70
2019-02-21T23:13:41.818Z,5.60
2019-02-21T23:16:10.714Z,5.10
2019-02-21T23:18:39.626Z,5.17
2019-02-21T23:21:08.646Z,5.37
2019-02-21T23:23:38.632Z,4.77
2019-02-21T23:26:07.722Z,5.00
2019-02-21T23:28:36.610Z,3.37
2019-02-21T23:31:05.546Z,4.17
2019-02-21T23:33:35.979Z,3.80
2019-02-21T23:36:05.028Z,3.30
2019-02-21T23:38:34.028Z,3.53
2019-02-21T23:41:05.664Z,3.50
2019-02-21T23:43:34.459Z,3.43
2019-02-21T23:46:03.451Z,2.73
2019-02-21T23:48:32.454Z,3.57
2019-02-21T23:51:01.629Z,3.70
2019-02-21T23:53:30.726Z,3.10
2019-02-21T23:55:59.727Z,3.30
2019-02-21T23:58:28.686Z,3.67
